GAL - Edward G Pitka Sr

Pirep is a free, collaborative database of all public and private airports located within the United States. All pilots are welcome to contribute, edit, and improve any airport they have local knowledge about, no registration required.
Are you familiar with this airport? Help out other pilots by adding your local knowledge.
Uploaded photos will be licensed under a CC BY-SA 4.0 license. Please only upload photos you have the rights to use.
Tags
Public
Undocu­mented
METAR / TAF
Webcam
Edit Tags
Food
Camping
Lodging
Car Rental
Bicycles
Swimming
Golfing
Fishing
Hot Springs
Museum
Flying Clubs
Airpark
Upcoming Events
No upcoming events. Is anything happening here soon?
*
*
*

Where exactly on/near the airport is this event taking place?

Is there a webpage with more information for this event?

Who should be contacted for more information?

What is this event all about?

Repeat every
Description
Transient Parking
Fuel Location
Landing & Tie-down Fees
Crew Car Availability
Flying Clubs
WiFi Access
Airport Statistics
Location: Galena, AK
Elevation: 153ft
Sectional: Fairbanks
Activation date: Sep 1947
Fuel: 100LL, A (prices)
Runway 08/26: 6,000ft
Runway 06/24: 2,600ft
Access: Open to the public
Current Weather — VFR
  • Weather data is strictly informational and not for flight planning purposes.
  • METAR
    2024-05-29 08:56:00 AKDT
    Ceiling Wind Temperature Dewpoint Weather Visbility
    Sky clear Calm 51°F 35°F N/A 10SM
    Raw: PAGA 291656Z AUTO 00000KT 10SM CLR 11/02 A2989 RMK AO2 SLP120 T01110017 TSNO $
  • TAF
    2024-05-29 10:00:00 AKDT – 2024-05-29 16:00:00 AKDT
    Ceiling Wind Weather Visbility
    Sky clear Variable N/A 6SM
    Clouds: @ ft
    Raw: PAGA 291720Z 2918/3018 VRB05KT P6SM SKC FM300000 07003KT P6SM VCSH BKN100
  • TAF
    2024-05-29 16:00:00 AKDT – 2024-05-30 10:00:00 AKDT
    Ceiling Wind Weather Visbility
    10,000ft 70° @ 3kt Showers in vicinity 6SM
    Clouds: Broken @ 10,000ft
    Raw: PAGA 291720Z 2918/3018 VRB05KT P6SM SKC FM300000 07003KT P6SM VCSH BKN100
Click/tap to add an annotation marker to the map
Direct links to live image URLs will be displayed inline on this page. URLs to separate webpages will be linked to.
URL:
Direct links to live image URLs will be displayed inline on this page. URLs to separate webpages will be linked to.
URL:
Remarks
  • Maint hrs 0800-1600 mon-fri excp hols.
  • Hazus rprtg durg duty hr unless prior arngmt in writing - amgr, po box 09, galena ak 99741.
  • Snow removal ops - monitor ctaf.
  • Acft may be closer to lndg sfc than it appears.
  • Ultralights on & invof arpt.
Comments
Leave a comment What was your experience like at this airport?